createdAt,value
2023-08-12T00:02:05.450Z,21.06
2023-08-12T00:22:05.428Z,20.93
2023-08-12T00:42:05.407Z,21.18
2023-08-12T01:02:05.361Z,21.12
2023-08-12T01:22:05.321Z,20.87
2023-08-12T01:42:05.307Z,20.93
2023-08-12T02:02:05.275Z,20.93
2023-08-12T02:22:05.245Z,21.06
2023-08-12T02:42:05.212Z,20.75
2023-08-12T03:02:05.190Z,20.87
2023-08-12T03:22:05.142Z,20.62
2023-08-12T03:42:05.117Z,20.56
2023-08-12T04:02:05.094Z,20.75
2023-08-12T04:22:05.057Z,20.62
2023-08-12T04:42:05.045Z,20.50
2023-08-12T05:02:04.994Z,20.56
2023-08-12T05:22:04.988Z,20.62
2023-08-12T05:42:04.970Z,20.50
2023-08-12T06:02:04.915Z,20.56
2023-08-12T06:22:04.887Z,20.81
2023-08-12T06:42:04.991Z,20.68
2023-08-12T07:02:04.828Z,20.68
2023-08-12T07:22:04.831Z,20.68
2023-08-12T07:42:04.799Z,20.68
2023-08-12T08:02:04.743Z,20.87
2023-08-12T08:22:04.728Z,20.93
2023-08-12T08:42:04.689Z,20.81
2023-08-12T09:02:04.711Z,20.93
2023-08-12T09:22:04.606Z,20.81
2023-08-12T09:42:04.569Z,21.00
2023-08-12T10:02:04.545Z,21.06
2023-08-12T10:22:04.545Z,20.81
2023-08-12T10:42:04.515Z,20.87
2023-08-12T11:02:04.462Z,21.25
2023-08-12T11:22:04.484Z,21.00
2023-08-12T11:42:04.462Z,21.12
2023-08-12T12:02:04.408Z,21.06
2023-08-12T12:22:04.430Z,21.12
2023-08-12T12:42:04.302Z,21.31
2023-08-12T13:02:04.250Z,21.37
2023-08-12T13:22:04.233Z,21.68
2023-08-12T13:42:04.217Z,21.68
2023-08-12T14:02:04.183Z,21.50
2023-08-12T14:22:04.437Z,21.62
2023-08-12T14:42:04.131Z,21.56
2023-08-12T15:02:04.070Z,21.62
2023-08-12T15:22:04.046Z,21.62
2023-08-12T15:42:04.010Z,21.68
2023-08-12T16:02:03.986Z,21.56
2023-08-12T16:22:03.968Z,21.68
2023-08-12T16:42:03.913Z,21.56
2023-08-12T17:02:03.897Z,21.75
2023-08-12T17:22:03.854Z,22.18
2023-08-12T17:42:03.847Z,22.00
2023-08-12T18:02:03.812Z,22.12
2023-08-12T18:22:03.760Z,22.18
2023-08-12T18:42:03.720Z,22.00
2023-08-12T19:02:03.701Z,22.00
2023-08-12T19:22:03.671Z,22.18
2023-08-12T19:42:03.637Z,21.93
2023-08-12T20:02:03.663Z,21.87
2023-08-12T20:22:03.604Z,22.00
2023-08-12T20:42:03.533Z,21.81
2023-08-12T21:02:03.521Z,22.06
2023-08-12T21:22:03.525Z,22.00
2023-08-12T21:42:03.447Z,21.93
2023-08-12T22:02:03.433Z,21.68
2023-08-12T22:22:03.382Z,22.18
2023-08-12T22:42:03.383Z,21.75
2023-08-12T23:02:03.324Z,21.75
2023-08-12T23:22:03.372Z,21.87
2023-08-12T23:42:03.260Z,22.06
